createdAt,value
2024-04-06T07:15:20.166Z,94.30
2024-04-06T07:17:48.313Z,94.70
2024-04-06T07:20:20.196Z,93.20
2024-04-06T07:22:57.548Z,91.90
2024-04-06T07:25:26.692Z,89.40
2024-04-06T07:27:54.919Z,83.70
2024-04-06T07:30:37.300Z,75.80
2024-04-06T07:33:06.848Z,69.40
2024-04-06T08:04:49.503Z,46.50
2024-04-06T08:07:37.227Z,46.00
2024-04-06T08:10:16.028Z,46.50
2024-04-06T08:12:44.908Z,45.90
2024-04-06T08:15:14.535Z,45.70
2024-04-06T08:20:31.433Z,46.00
2024-04-06T08:23:24.404Z,45.90
2024-04-06T08:28:27.832Z,44.10
2024-04-06T08:42:45.273Z,41.30
2024-04-06T09:15:49.511Z,38.10
2024-04-06T09:24:17.744Z,37.90
2024-04-06T09:26:47.526Z,37.40
2024-04-06T09:29:17.554Z,38.60
2024-04-06T09:31:48.711Z,39.20
2024-04-06T09:34:17.292Z,38.50
2024-04-06T09:36:53.190Z,38.60
2024-04-06T09:39:21.964Z,38.40
2024-04-06T09:41:50.847Z,38.20
2024-04-06T09:44:22.366Z,39.30
2024-04-06T09:46:51.173Z,38.40
2024-04-06T09:49:36.520Z,38.80
2024-04-06T09:52:12.079Z,38.80
2024-04-06T11:04:15.014Z,59.80
2024-04-06T11:06:56.134Z,60.40
2024-04-06T11:09:28.280Z,62.00
2024-04-06T11:11:56.582Z,63.10
2024-04-06T11:30:04.845Z,66.10
2024-04-06T12:02:51.504Z,76.70
2024-04-06T12:54:58.002Z,85.40
2024-04-06T12:57:49.019Z,85.60
2024-04-06T13:00:28.544Z,85.90
2024-04-06T13:06:34.438Z,86.30
2024-04-06T13:09:10.368Z,88.20
2024-04-06T13:11:58.042Z,87.10
2024-04-06T13:27:27.112Z,88.20
2024-04-06T13:30:02.347Z,87.40
2024-04-06T13:32:49.233Z,87.60
2024-04-06T13:35:25.017Z,87.50
2024-04-06T13:37:55.948Z,87.30
2024-04-06T13:43:54.749Z,87.20
2024-04-06T13:46:58.135Z,87.20
2024-04-06T13:49:30.658Z,87.30
2024-04-06T13:52:06.627Z,87.50
2024-04-06T13:57:22.983Z,88.60
2024-04-06T15:12:03.558Z,87.50
2024-04-06T15:14:34.992Z,86.90
2024-04-06T15:17:06.862Z,87.40
2024-04-06T15:19:40.923Z,87.70
2024-04-06T15:22:15.459Z,87.60
2024-04-06T15:24:45.772Z,86.40
2024-04-06T15:30:41.047Z,85.80
2024-04-06T15:33:15.976Z,87.00
2024-04-06T15:35:51.846Z,87.60
2024-04-06T15:38:22.827Z,86.80
2024-04-06T15:40:50.734Z,86.50
2024-04-06T16:12:33.758Z,88.70
2024-04-06T16:15:20.002Z,89.00
2024-04-06T16:17:55.260Z,88.70
2024-04-06T16:23:24.592Z,89.90
2024-04-06T16:25:53.736Z,89.80
2024-04-06T16:28:29.036Z,90.30
2024-04-06T16:31:03.933Z,89.80
2024-04-06T16:34:01.318Z,89.30
2024-04-06T16:36:34.802Z,89.50
2024-04-06T16:39:08.679Z,90.00
2024-04-06T16:41:42.644Z,90.10
2024-04-06T16:44:22.980Z,90.10
2024-04-06T16:49:54.985Z,90.60
2024-04-06T16:52:35.188Z,90.80
2024-04-06T16:55:04.314Z,90.90
2024-04-06T16:57:32.986Z,90.90
2024-04-06T17:03:02.541Z,91.10
2024-04-06T17:11:17.083Z,91.50
2024-04-06T17:13:45.009Z,91.60
2024-04-06T17:16:16.164Z,91.40
2024-04-06T17:18:49.324Z,91.50
2024-04-06T17:24:29.892Z,92.60
2024-04-06T17:32:46.685Z,96.20
2024-04-06T17:35:16.456Z,96.90
2024-04-06T17:37:46.563Z,97.80
2024-04-06T17:40:22.180Z,99.10
2024-04-06T17:42:58.693Z,99.90
2024-04-06T17:45:30.755Z,99.90
2024-04-06T18:10:43.523Z,99.90
2024-04-06T20:49:57.630Z,99.90
2024-04-06T20:56:08.896Z,99.90
2024-04-06T22:14:20.820Z,99.90
2024-04-06T22:16:52.682Z,99.90
2024-04-06T22:19:30.820Z,99.90
2024-04-06T22:22:15.722Z,99.90
2024-04-06T22:24:51.954Z,99.90
2024-04-06T22:27:29.375Z,99.90
2024-04-06T22:30:02.954Z,99.90
2024-04-06T22:32:31.816Z,99.90
2024-04-06T22:35:02.359Z,99.90
2024-04-06T22:37:34.884Z,99.90
2024-04-06T22:40:09.838Z,99.90
2024-04-06T22:42:38.829Z,99.90
